Terminal Aerodrome Forecast
Issued by NWS

Home | Current Version | Previous Version | Text Only | Print | Product List | Glossary On
Versions: 1 2 3 4 5 6 7 8 9 10 11 12 13 14 15 16 17 18 19
000
FTPQ31 PGUM 260818 RRF
TAFTPN
TAF
PTPN 260818Z 2608/2706 07015KT P6SM VCSH SCT018 SCT040
      TEMPO 2608/2612 -SHRA BKN018 BKN040=

USA.gov is the U.S. government's official web portal to all federal, state and local government web resources and services.